Time;durP1;ratioP1;P1;durP2;ratioP2;P2;SDS_P1;SDS_P2;PMS_P1;PMS_P2;Temp;Humidity;BMP_temperature;BMP_pressure;BME280_temperature;BME280_humidity;BME280_pressure;Samples;Min_cycle;Max_cycle;Signal;HPM_P1;HPM_P2
2022/03/28 00:02:08;;;;;;;46.53;24.00;;;8.10;1.00;;;;;;4980628;28;20236;-63
2022/03/28 00:04:35;;;;;;;41.90;23.73;;;8.00;1.00;;;;;;4964042;28;20209;-63
2022/03/28 00:07:04;;;;;;;41.10;23.03;;;8.00;1.00;;;;;;4964000;28;20213;-63
2022/03/28 00:09:31;;;;;;;41.17;22.97;;;8.00;1.00;;;;;;4980814;28;20693;-63
2022/03/28 00:12:01;;;;;;;44.90;24.50;;;7.90;1.00;;;;;;4981624;28;20199;-63
2022/03/28 00:14:30;;;;;;;48.90;25.30;;;8.00;1.00;;;;;;4982275;28;20195;-63
2022/03/28 00:16:57;;;;;;;40.93;23.87;;;7.90;1.00;;;;;;4994384;28;20193;-64
2022/03/28 00:19:24;;;;;;;40.83;24.20;;;8.00;1.00;;;;;;4965291;28;20724;-63
2022/03/28 00:21:51;;;;;;;39.17;22.33;;;8.00;1.00;;;;;;4949137;28;20261;-63
2022/03/28 00:24:18;;;;;;;40.00;22.50;;;8.00;1.00;;;;;;4963865;28;20260;-63
2022/03/28 00:26:45;;;;;;;50.10;26.63;;;8.00;1.00;;;;;;4970799;28;20285;-63
2022/03/28 00:29:12;;;;;;;44.03;24.37;;;7.90;1.00;;;;;;4965499;28;20252;-64
2022/03/28 00:31:39;;;;;;;40.73;23.13;;;7.90;1.00;;;;;;4970296;28;20209;-63
2022/03/28 00:34:08;;;;;;;43.20;22.60;;;7.80;1.00;;;;;;4970434;28;20672;-64
2022/03/28 00:36:35;;;;;;;43.60;22.57;;;7.80;1.00;;;;;;4981583;28;20198;-62
2022/03/28 00:39:02;;;;;;;43.80;22.90;;;7.70;1.00;;;;;;4947574;28;20273;-63
2022/03/28 00:41:29;;;;;;;44.90;22.07;;;7.60;1.00;;;;;;4964286;28;20265;-63
2022/03/28 00:43:57;;;;;;;38.33;22.23;;;7.60;1.00;;;;;;4980363;28;20197;-64
2022/03/28 00:46:24;;;;;;;39.37;21.50;;;7.60;1.00;;;;;;4980609;28;20213;-64
2022/03/28 00:48:52;;;;;;;38.77;21.73;;;7.60;1.00;;;;;;4970147;28;20218;-63
2022/03/28 00:51:24;;;;;;;39.00;21.37;;;7.60;1.00;;;;;;4963626;28;20205;-63
2022/03/28 00:53:51;;;;;;;36.50;22.17;;;7.60;1.00;;;;;;4965623;28;20623;-64
2022/03/28 00:56:19;;;;;;;39.80;23.23;;;7.60;1.00;;;;;;4964864;28;20296;-64
2022/03/28 00:58:48;;;;;;;39.00;21.87;;;7.60;1.00;;;;;;4964883;28;20218;-63
2022/03/28 01:01:15;;;;;;;43.17;21.60;;;7.60;1.00;;;;;;4962881;28;20213;-63
2022/03/28 01:03:46;;;;;;;40.50;21.63;;;7.50;1.00;;;;;;4951647;28;20625;-63
2022/03/28 01:06:13;;;;;;;40.23;22.83;;;7.50;1.00;;;;;;4956222;28;20202;-63
2022/03/28 01:08:40;;;;;;;40.60;21.93;;;7.50;1.00;;;;;;4949065;28;20285;-63
2022/03/28 01:11:12;;;;;;;39.00;21.13;;;7.40;1.00;;;;;;4979526;28;20249;-63
2022/03/28 01:13:45;;;;;;;39.47;21.63;;;7.40;1.00;;;;;;4962920;28;20189;-62
2022/03/28 01:16:11;;;;;;;36.83;21.43;;;7.40;1.00;;;;;;4946752;28;20209;-63
2022/03/28 01:18:49;;;;;;;35.50;21.37;;;7.40;1.00;;;;;;4969488;28;20202;-63
2022/03/28 01:21:17;;;;;;;39.40;23.70;;;7.30;1.00;;;;;;4963601;28;20313;-64
2022/03/28 01:23:45;;;;;;;42.37;23.90;;;7.30;1.00;;;;;;4962659;28;20340;-64
2022/03/28 01:26:13;;;;;;;43.90;24.90;;;7.30;1.00;;;;;;4970438;28;20210;-63
2022/03/28 01:28:40;;;;;;;43.80;24.33;;;7.30;1.00;;;;;;4981165;28;20259;-63
2022/03/28 01:31:07;;;;;;;44.50;23.90;;;7.30;1.00;;;;;;4982917;28;20261;-63
2022/03/28 01:33:37;;;;;;;46.83;26.30;;;7.30;1.00;;;;;;4983940;28;20221;-64
2022/03/28 01:36:04;;;;;;;42.80;24.20;;;7.20;1.00;;;;;;4956469;28;20202;-63
2022/03/28 01:38:31;;;;;;;47.13;24.60;;;7.20;1.00;;;;;;4966510;28;20229;-64
2022/03/28 01:41:00;;;;;;;43.43;23.50;;;7.20;1.00;;;;;;4973837;28;20210;-63
2022/03/28 01:43:27;;;;;;;39.30;23.53;;;7.20;1.00;;;;;;4983613;28;20604;-63
2022/03/28 01:45:54;;;;;;;42.53;23.80;;;7.10;1.00;;;;;;4972938;28;20198;-64
2022/03/28 01:48:21;;;;;;;39.43;22.67;;;7.10;1.00;;;;;;4974047;28;20260;-64
2022/03/28 01:50:48;;;;;;;42.73;23.43;;;7.10;1.00;;;;;;4950976;28;20226;-64
2022/03/28 01:53:15;;;;;;;41.93;24.80;;;7.10;1.00;;;;;;4983483;28;20236;-64
2022/03/28 01:55:42;;;;;;;38.07;23.00;;;7.10;1.00;;;;;;4966019;28;20229;-63
2022/03/28 01:58:09;;;;;;;40.43;23.73;;;7.10;1.00;;;;;;4951148;28;20240;-63
2022/03/28 02:00:36;;;;;;;41.07;22.87;;;7.10;1.00;;;;;;4973339;28;20228;-64
2022/03/28 02:03:03;;;;;;;42.97;22.93;;;7.10;1.00;;;;;;4966476;28;20201;-63
2022/03/28 02:05:30;;;;;;;42.47;23.70;;;7.00;1.00;;;;;;4973243;28;20209;-64
2022/03/28 02:07:59;;;;;;;40.30;22.27;;;7.00;1.00;;;;;;4989533;28;20303;-65
2022/03/28 02:10:29;;;;;;;46.70;23.40;;;7.00;1.00;;;;;;4973191;28;20260;-64
2022/03/28 02:12:56;;;;;;;40.57;22.53;;;7.00;1.00;;;;;;4963907;28;20214;-63
2022/03/28 02:15:23;;;;;;;37.73;21.53;;;7.00;1.00;;;;;;4973771;28;20227;-63
2022/03/28 02:17:52;;;;;;;40.83;22.77;;;7.00;1.00;;;;;;4974233;28;20288;-63
2022/03/28 02:20:19;;;;;;;40.27;21.23;;;7.00;1.00;;;;;;4981914;28;20285;-62
2022/03/28 02:22:47;;;;;;;39.03;22.03;;;7.00;1.00;;;;;;4974572;28;20328;-62
2022/03/28 02:25:15;;;;;;;37.87;20.87;;;6.90;1.00;;;;;;4966483;28;20218;-63
2022/03/28 02:27:43;;;;;;;37.83;20.97;;;7.00;1.00;;;;;;4966327;28;20198;-63
2022/03/28 02:30:12;;;;;;;39.87;21.63;;;6.80;1.00;;;;;;4971651;28;20210;-64
2022/03/28 02:32:42;;;;;;;43.47;22.73;;;6.70;1.00;;;;;;4966838;28;20213;-64
2022/03/28 02:35:12;;;;;;;44.43;21.37;;;6.70;37.40;;;;;;4983184;28;20202;-64
2022/03/28 02:37:39;;;;;;;37.67;21.07;;;6.60;25.50;;;;;;4949295;28;20277;-62
2022/03/28 02:40:12;;;;;;;36.57;20.63;;;6.60;12.70;;;;;;4976821;28;20721;-63
2022/03/28 02:42:41;;;;;;;39.20;21.47;;;6.60;17.00;;;;;;4963059;28;20968;-63
2022/03/28 02:45:11;;;;;;;36.37;21.40;;;6.60;73.70;;;;;;4969487;28;20210;-63
2022/03/28 02:47:40;;;;;;;38.77;21.27;;;6.50;99.90;;;;;;4977325;28;20205;-62
2022/03/28 02:50:10;;;;;;;42.40;21.77;;;6.50;81.20;;;;;;4994972;28;20234;-63
2022/03/28 02:52:37;;;;;;;42.43;22.00;;;6.50;84.50;;;;;;4961996;28;20202;-63
2022/03/28 02:55:07;;;;;;;36.67;20.70;;;6.50;88.40;;;;;;4978998;28;20213;-63
2022/03/28 02:57:37;;;;;;;37.23;22.00;;;6.50;58.70;;;;;;4978479;28;20202;-63
2022/03/28 03:00:10;;;;;;;41.20;21.77;;;6.50;61.10;;;;;;4969510;28;20265;-64
2022/03/28 03:02:42;;;;;;;37.80;21.57;;;6.50;99.90;;;;;;4977977;28;20537;-65
2022/03/28 03:05:10;;;;;;;40.40;21.97;;;6.50;99.90;;;;;;4978317;28;20218;-64
2022/03/28 03:07:40;;;;;;;36.60;21.07;;;6.30;99.90;;;;;;4979732;28;20206;-64
2022/03/28 03:10:09;;;;;;;44.80;22.40;;;6.30;99.90;;;;;;4962859;28;20269;-64
2022/03/28 03:12:36;;;;;;;40.00;21.67;;;6.30;99.90;;;;;;4972205;28;20720;-64
2022/03/28 03:15:08;;;;;;;44.63;22.33;;;6.30;99.90;;;;;;4989397;28;20280;-64
2022/03/28 03:17:36;;;;;;;39.93;21.60;;;6.20;99.90;;;;;;4962203;28;20199;-63
2022/03/28 03:20:05;;;;;;;39.30;21.70;;;6.20;99.90;;;;;;4946022;28;20281;-64
2022/03/28 03:22:32;;;;;;;39.60;21.17;;;6.20;99.90;;;;;;4962236;28;20246;-65
2022/03/28 03:25:02;;;;;;;38.37;21.57;;;6.20;99.90;;;;;;4962022;28;20218;-64
2022/03/28 03:27:29;;;;;;;47.33;23.33;;;6.10;99.90;;;;;;4978154;28;20582;-63
2022/03/28 03:29:56;;;;;;;41.07;22.50;;;6.10;99.90;;;;;;4961149;28;20283;-64
2022/03/28 03:32:23;;;;;;;39.57;21.33;;;6.10;99.90;;;;;;4962126;28;20272;-63
2022/03/28 03:34:51;;;;;;;42.73;20.87;;;6.10;99.90;;;;;;4966381;28;20275;-63
2022/03/28 03:37:20;;;;;;;43.00;21.13;;;6.10;99.90;;;;;;4961993;28;20198;-63
2022/03/28 03:39:50;;;;;;;36.70;20.23;;;6.10;99.90;;;;;;4967162;28;20248;-63
2022/03/28 03:42:17;;;;;;;40.97;22.53;;;6.10;99.90;;;;;;4963158;28;20206;-63
2022/03/28 03:44:44;;;;;;;37.60;20.40;;;6.10;99.90;;;;;;4968254;28;20611;-63
2022/03/28 03:47:11;;;;;;;40.47;22.53;;;6.10;99.90;;;;;;4967597;28;20236;-63
2022/03/28 03:49:40;;;;;;;38.47;19.97;;;6.00;99.90;;;;;;4966146;28;20284;-63
2022/03/28 03:52:07;;;;;;;40.73;21.90;;;6.10;99.90;;;;;;4961012;28;20198;-62
2022/03/28 03:54:34;;;;;;;40.83;21.63;;;6.10;99.90;;;;;;4969349;28;20708;-63
2022/03/28 03:57:02;;;;;;;36.30;19.27;;;6.10;99.90;;;;;;4959925;28;20627;-63
2022/03/28 03:59:29;;;;;;;35.27;20.37;;;6.10;99.90;;;;;;4966631;28;20198;-62
2022/03/28 04:01:56;;;;;;;39.67;20.40;;;6.00;99.90;;;;;;4966210;28;20265;-63
2022/03/28 04:04:25;;;;;;;40.67;19.43;;;5.90;99.90;;;;;;4944819;28;20201;-63
2022/03/28 04:06:52;;;;;;;39.53;20.53;;;5.90;99.90;;;;;;4966366;28;20756;-63
2022/03/28 04:09:24;;;;;;;40.23;20.17;;;5.80;1.00;;;;;;4964754;28;20194;-63
2022/03/28 04:11:51;;;;;;;38.43;20.17;;;5.70;1.00;;;;;;4961422;28;20281;-62
2022/03/28 04:14:23;;;;;;;43.63;21.27;;;5.70;1.00;;;;;;4967062;28;20235;-63
2022/03/28 04:16:52;;;;;;;39.47;21.10;;;5.60;1.00;;;;;;4953972;28;20206;-62
2022/03/28 04:19:25;;;;;;;38.57;20.93;;;5.60;1.00;;;;;;4961265;28;20285;-63
2022/03/28 04:21:52;;;;;;;40.37;21.60;;;5.60;1.00;;;;;;4967193;28;20256;-63
2022/03/28 04:24:20;;;;;;;44.73;20.70;;;5.60;1.00;;;;;;4961554;28;20203;-62
2022/03/28 04:26:49;;;;;;;41.97;22.50;;;5.60;1.00;;;;;;4979663;28;20234;-62
2022/03/28 04:29:16;;;;;;;41.77;21.13;;;5.60;1.00;;;;;;4968903;28;20206;-63
2022/03/28 04:31:45;;;;;;;42.10;19.97;;;5.60;1.00;;;;;;4961379;28;20685;-62
2022/03/28 04:34:12;;;;;;;35.43;20.33;;;5.60;1.00;;;;;;4961092;28;20306;-62
2022/03/28 04:36:39;;;;;;;37.93;20.07;;;5.60;1.00;;;;;;4974999;28;20210;-62
2022/03/28 04:39:09;;;;;;;34.03;19.77;;;5.70;1.00;;;;;;4960082;28;20647;-62
2022/03/28 04:41:42;;;;;;;36.23;20.57;;;5.60;1.00;;;;;;4967276;28;20762;-64
2022/03/28 04:44:11;;;;;;;38.73;20.20;;;5.60;1.00;;;;;;4993062;28;20253;-65
2022/03/28 04:46:42;;;;;;;35.13;20.50;;;5.60;1.00;;;;;;4945954;28;20218;-64
2022/03/28 04:49:13;;;;;;;36.23;19.77;;;5.60;1.00;;;;;;4975661;28;20194;-64
2022/03/28 04:51:41;;;;;;;39.80;19.73;;;5.60;99.90;;;;;;4967017;28;20231;-63
2022/03/28 04:54:08;;;;;;;43.13;20.70;;;5.60;99.90;;;;;;4967673;28;20207;-63
2022/03/28 04:56:35;;;;;;;38.10;19.90;;;5.50;1.00;;;;;;4944032;28;21017;-64
2022/03/28 04:59:02;;;;;;;36.70;20.67;;;5.50;1.00;;;;;;4952334;28;20233;-63
2022/03/28 05:01:29;;;;;;;44.73;21.00;;;5.50;1.00;;;;;;4975447;28;20210;-64
2022/03/28 05:03:56;;;;;;;37.27;19.97;;;5.50;1.00;;;;;;4960962;28;20199;-64
2022/03/28 05:06:23;;;;;;;35.63;20.50;;;5.40;1.00;;;;;;4949031;28;20238;-64
2022/03/28 05:08:50;;;;;;;41.20;19.63;;;5.40;1.00;;;;;;4968127;28;20351;-64
2022/03/28 05:11:22;;;;;;;32.63;17.13;;;5.30;1.00;;;;;;4951913;28;20249;-64
2022/03/28 05:13:50;;;;;;;33.70;17.73;;;5.30;1.00;;;;;;4991505;28;20198;-63
2022/03/28 05:16:17;;;;;;;33.10;17.50;;;5.30;1.00;;;;;;4960140;28;20766;-63
2022/03/28 05:18:47;;;;;;;32.03;18.60;;;5.30;1.00;;;;;;4959659;28;20237;-64
2022/03/28 05:21:14;;;;;;;30.10;16.27;;;5.20;1.00;;;;;;4965853;28;20261;-63
2022/03/28 05:23:44;;;;;;;36.33;18.63;;;5.30;1.00;;;;;;4960781;28;20218;-64
2022/03/28 05:26:13;;;;;;;33.80;17.73;;;5.30;1.00;;;;;;4976674;28;20207;-64
2022/03/28 05:28:40;;;;;;;34.43;17.70;;;5.30;1.00;;;;;;4960708;28;20229;-64
2022/03/28 05:31:07;;;;;;;35.20;19.30;;;5.30;1.00;;;;;;4965589;28;20217;-64
2022/03/28 05:33:34;;;;;;;36.20;18.70;;;5.40;1.00;;;;;;4975399;28;20205;-65
2022/03/28 05:36:04;;;;;;;36.30;19.43;;;5.40;1.00;;;;;;4967493;28;20214;-63
2022/03/28 05:38:32;;;;;;;35.83;18.97;;;5.50;1.00;;;;;;4952182;28;20203;-65
2022/03/28 05:40:59;;;;;;;35.67;18.73;;;5.60;1.00;;;;;;4979165;28;20522;-65
2022/03/28 05:43:28;;;;;;;36.30;17.63;;;5.60;1.00;;;;;;4954688;28;20268;-63
2022/03/28 05:45:56;;;;;;;28.60;17.47;;;5.80;1.00;;;;;;4979739;28;20206;-63
2022/03/28 05:48:25;;;;;;;30.33;17.03;;;6.00;1.00;;;;;;4996324;28;20205;-64
2022/03/28 05:50:54;;;;;;;32.57;16.80;;;6.20;99.90;;;;;;4961199;28;20218;-64
2022/03/28 05:53:21;;;;;;;36.67;19.30;;;6.30;99.90;;;;;;4981539;28;20233;-63
2022/03/28 05:55:48;;;;;;;35.53;17.67;;;6.40;99.90;;;;;;4954224;28;20206;-63
2022/03/28 05:58:16;;;;;;;28.10;15.90;;;6.60;31.90;;;;;;4954529;28;20225;-63
2022/03/28 06:00:43;;;;;;;29.27;16.80;;;6.70;1.00;;;;;;4971539;28;20206;-63
2022/03/28 06:03:13;;;;;;;35.03;17.43;;;6.90;1.00;;;;;;4947102;28;20197;-63
2022/03/28 06:06:02;;;;;;;28.43;15.87;;;8.10;1.00;;;;;;4971177;28;20249;-64
2022/03/28 06:08:29;;;;;;;34.63;17.03;;;9.80;99.90;;;;;;4981945;28;20244;-63
2022/03/28 06:10:56;;;;;;;33.10;19.43;;;11.10;1.00;;;;;;4946495;28;20217;-63
2022/03/28 06:13:23;;;;;;;29.43;18.33;;;11.90;99.90;;;;;;4963693;28;20190;-65
2022/03/28 06:15:50;;;;;;;29.50;18.57;;;12.70;99.90;;;;;;4980488;28;20241;-64
2022/03/28 06:18:19;;;;;;;30.27;19.63;;;13.30;99.90;;;;;;4965513;28;20201;-63
2022/03/28 06:20:47;;;;;;;34.00;20.07;;;14.00;1.00;;;;;;4966212;28;20248;-63
2022/03/28 06:23:14;;;;;;;33.67;20.37;;;14.40;1.00;;;;;;4963467;28;20217;-64
2022/03/28 06:25:41;;;;;;;32.87;21.17;;;14.60;1.00;;;;;;4953338;28;20217;-63
2022/03/28 06:28:10;;;;;;;33.87;20.50;;;15.30;1.00;;;;;;4959135;28;20210;-65
2022/03/28 06:30:37;;;;;;;34.80;21.52;;;16.10;1.00;;;;;;4979282;28;20225;-64
2022/03/28 06:33:04;;;;;;;32.72;22.33;;;16.60;1.00;;;;;;4983340;28;20545;-64
2022/03/28 06:35:31;;;;;;;35.38;21.52;;;17.30;1.00;;;;;;4966028;28;20293;-64
2022/03/28 06:38:01;;;;;;;32.35;21.73;;;17.80;1.00;;;;;;4965865;28;20759;-65
2022/03/28 06:40:28;;;;;;;34.15;22.42;;;18.10;1.00;;;;;;4963705;28;20326;-64
2022/03/28 06:42:57;;;;;;;35.08;24.27;;;18.20;1.00;;;;;;4963115;28;20201;-64
2022/03/28 06:45:25;;;;;;;34.88;22.90;;;18.50;1.00;;;;;;4968364;28;20209;-64
2022/03/28 06:47:55;;;;;;;34.13;22.15;;;18.30;1.00;;;;;;4982624;28;20678;-64
2022/03/28 06:50:42;;;;;;;35.40;25.60;;;18.90;1.00;;;;;;4982824;28;20285;-63
2022/03/28 06:53:09;;;;;;;30.42;21.08;;;19.30;1.00;;;;;;4965674;28;20224;-64
2022/03/28 06:55:36;;;;;;;38.38;23.20;;;19.80;99.90;;;;;;4967031;28;20233;-64
2022/03/28 06:58:03;;;;;;;34.03;25.33;;;20.60;99.90;;;;;;4966709;28;20671;-64
2022/03/28 07:00:33;;;;;;;34.25;24.35;;;20.90;99.90;;;;;;4982475;28;20724;-63
2022/03/28 07:03:00;;;;;;;32.72;23.27;;;21.50;99.90;;;;;;4966014;28;20201;-64
2022/03/28 07:05:28;;;;;;;32.97;23.63;;;21.80;99.90;;;;;;4964443;28;20206;-64
2022/03/28 07:07:58;;;;;;;33.78;23.95;;;22.10;99.90;;;;;;4983416;28;20269;-64
2022/03/28 07:10:25;;;;;;;30.10;22.67;;;22.00;99.90;;;;;;4949590;28;20304;-64
2022/03/28 07:12:58;;;;;;;36.85;26.40;;;22.70;99.90;;;;;;4979938;28;20201;-64
2022/03/28 07:15:27;;;;;;;37.35;27.88;;;23.50;99.90;;;;;;4981572;28;20268;-64
2022/03/28 07:18:02;;;;;;;35.90;24.63;;;24.30;99.90;;;;;;4971153;28;20214;-64
2022/03/28 07:20:31;;;;;;;37.30;24.58;;;24.90;99.90;;;;;;4981702;28;20205;-64
2022/03/28 07:23:03;;;;;;;33.30;26.48;;;24.90;99.90;;;;;;4983806;28;21181;-64
2022/03/28 07:25:33;;;;;;;32.55;25.60;;;24.10;99.90;;;;;;4965775;28;20296;-64
2022/03/28 07:28:07;;;;;;;34.42;25.95;;;23.50;99.90;;;;;;4981271;28;20268;-64
2022/03/28 07:30:35;;;;;;;34.17;26.05;;;20.00;99.90;;;;;;4976184;28;20878;-64
2022/03/28 07:33:06;;;;;;;35.15;26.38;;;21.40;99.90;;;;;;4977624;28;20209;-63
2022/03/28 07:35:37;;;;;;;32.15;24.52;;;20.10;99.90;;;;;;4956713;28;20583;-63
2022/03/28 07:38:10;;;;;;;33.78;24.98;;;21.70;99.90;;;;;;4976655;28;20691;-64
2022/03/28 07:40:43;;;;;;;37.60;26.63;;;23.20;99.90;;;;;;4958283;28;20600;-64
2022/03/28 07:43:11;;;;;;;35.42;26.40;;;22.60;99.90;;;;;;4959193;28;21506;-63
2022/03/28 07:45:38;;;;;;;38.50;27.00;;;20.50;99.90;;;;;;4967013;28;20210;-63
2022/03/28 07:48:06;;;;;;;36.83;28.55;;;21.00;99.90;;;;;;4961604;28;20201;-63
2022/03/28 07:50:35;;;;;;;39.08;28.00;;;21.40;99.90;;;;;;4957405;28;20214;-63
2022/03/28 07:53:03;;;;;;;37.13;28.05;;;21.00;99.90;;;;;;4961603;28;20277;-64
2022/03/28 07:55:31;;;;;;;35.17;26.00;;;23.20;99.90;;;;;;4962778;28;20237;-64
2022/03/28 07:58:03;;;;;;;34.95;25.08;;;26.40;99.90;;;;;;4957627;28;20666;-63
2022/03/28 08:00:39;;;;;;;36.95;25.65;;;27.40;99.90;;;;;;4978911;28;20669;-64
2022/03/28 08:03:07;;;;;;;36.55;26.40;;;28.70;99.90;;;;;;4961086;28;20209;-63
2022/03/28 08:05:36;;;;;;;32.78;24.95;;;29.00;99.90;;;;;;4962893;28;20206;-64
2022/03/28 08:08:04;;;;;;;43.00;25.58;;;30.30;99.90;;;;;;4962461;28;20199;-63
2022/03/28 08:10:31;;;;;;;33.78;27.00;;;30.50;99.90;;;;;;4962607;28;20768;-63
2022/03/28 08:12:58;;;;;;;32.42;26.77;;;30.90;99.90;;;;;;4963053;28;20672;-63
2022/03/28 08:15:30;;;;;;;36.45;27.50;;;31.80;99.90;;;;;;4961023;28;20203;-64
2022/03/28 08:18:00;;;;;;;32.17;26.33;;;31.90;99.90;;;;;;4957633;28;20195;-64
2022/03/28 08:20:27;;;;;;;33.45;26.20;;;32.70;99.90;;;;;;4972612;28;20697;-64
2022/03/28 08:22:59;;;;;;;34.17;27.58;;;32.80;99.90;;;;;;4975008;28;20765;-64
2022/03/28 08:25:30;;;;;;;33.80;26.85;;;30.70;99.90;;;;;;4960031;28;20197;-64
2022/03/28 08:28:00;;;;;;;36.67;26.98;;;31.40;99.90;;;;;;4962319;28;20209;-64
2022/03/28 08:30:29;;;;;;;36.55;27.42;;;32.10;99.90;;;;;;4959834;28;20625;-63
2022/03/28 08:32:56;;;;;;;36.35;27.92;;;31.80;99.90;;;;;;4970572;28;20257;-65
2022/03/28 08:35:25;;;;;;;35.15;26.15;;;32.60;99.90;;;;;;4973243;28;20309;-65
2022/03/28 08:37:52;;;;;;;36.75;26.60;;;33.70;99.90;;;;;;4958800;28;21634;-65
2022/03/28 08:40:19;;;;;;;33.45;26.50;;;32.90;99.90;;;;;;4959817;28;20392;-64
2022/03/28 08:42:48;;;;;;;34.90;26.73;;;33.50;99.90;;;;;;4944816;28;20213;-64
2022/03/28 08:45:18;;;;;;;31.60;26.15;;;34.00;99.90;;;;;;4955016;28;21817;-64
2022/03/28 08:47:47;;;;;;;31.40;26.88;;;34.20;99.90;;;;;;4959893;28;20289;-66
2022/03/28 08:50:35;;;;;;;34.55;26.63;;;34.80;99.90;;;;;;4968528;28;20205;-65
2022/03/28 08:53:04;;;;;;;29.75;24.63;;;36.20;99.90;;;;;;4973529;28;21032;-65
2022/03/28 08:55:31;;;;;;;29.60;25.83;;;36.30;99.90;;;;;;4959334;28;20202;-65
2022/03/28 08:58:01;;;;;;;28.30;24.52;;;36.60;99.90;;;;;;4955790;28;21642;-65
2022/03/28 09:00:28;;;;;;;31.73;25.98;;;36.90;99.90;;;;;;4959412;28;20262;-65
2022/03/28 09:02:59;;;;;;;31.75;26.05;;;36.30;99.90;;;;;;4958711;28;20229;-64
2022/03/28 09:05:33;;;;;;;36.35;26.05;;;34.20;99.90;;;;;;4967556;28;20209;-65
2022/03/28 09:08:01;;;;;;;32.60;25.98;;;35.30;99.90;;;;;;4950248;28;20203;-64
2022/03/28 09:10:33;;;;;;;30.83;25.83;;;36.30;99.90;;;;;;4975896;28;20310;-65
2022/03/28 09:13:07;;;;;;;28.90;24.42;;;37.20;99.90;;;;;;4941943;28;20202;-64
2022/03/28 09:15:44;;;;;;;28.02;24.52;;;38.20;99.90;;;;;;4955613;28;20962;-65
2022/03/28 09:18:32;;;;;;;28.35;23.73;;;37.30;99.90;;;;;;4989959;28;20216;-65
2022/03/28 09:21:01;;;;;;;34.13;25.80;;;38.20;99.90;;;;;;4943616;28;20269;-64
2022/03/28 09:23:38;;;;;;;32.33;26.45;;;37.90;99.90;;;;;;4950682;28;20656;-65
2022/03/28 09:26:16;;;;;;;34.65;25.63;;;38.20;99.90;;;;;;4939318;28;20636;-64
2022/03/28 09:28:56;;;;;;;30.42;25.65;;;37.80;99.90;;;;;;4940101;28;20225;-64
2022/03/28 09:31:27;;;;;;;30.67;25.10;;;37.60;99.90;;;;;;4956386;28;20303;-66
2022/03/28 09:34:16;;;;;;;29.27;25.02;;;37.80;99.90;;;;;;4956678;28;20280;-65
2022/03/28 09:36:57;;;;;;;31.77;26.00;;;38.10;99.90;;;;;;4968515;28;20713;-65
2022/03/28 09:39:30;;;;;;;33.63;27.63;;;38.60;99.90;;;;;;4963482;28;21577;-63
2022/03/28 09:42:10;;;;;;;30.20;24.70;;;39.60;99.90;;;;;;4960372;28;20265;-65
2022/03/28 09:44:53;;;;;;;30.55;26.77;;;40.80;99.90;;;;;;4974271;28;20249;-65
2022/03/28 09:47:22;;;;;;;31.92;25.75;;;40.50;99.90;;;;;;4959297;28;20211;-65
2022/03/28 09:49:54;;;;;;;28.83;25.60;;;39.90;99.90;;;;;;4943762;28;20197;-64
2022/03/28 09:52:29;;;;;;;31.75;27.00;;;39.50;99.90;;;;;;4959559;28;20216;-64
2022/03/28 09:54:59;;;;;;;29.52;26.13;;;39.90;99.90;;;;;;4981418;28;20236;-64
2022/03/28 09:57:34;;;;;;;30.48;26.52;;;38.80;99.90;;;;;;4961277;28;20307;-64
2022/03/28 10:00:13;;;;;;;31.48;27.10;;;39.30;99.90;;;;;;4961326;28;20732;-64
2022/03/28 10:02:41;;;;;;;33.33;27.90;;;38.90;99.90;;;;;;4976813;28;20201;-65
2022/03/28 10:05:09;;;;;;;30.48;26.08;;;39.20;99.90;;;;;;4958300;28;20206;-66
2022/03/28 10:07:37;;;;;;;28.08;24.95;;;38.60;99.90;;;;;;4979868;28;20265;-65
2022/03/28 10:10:05;;;;;;;32.30;26.48;;;40.00;99.90;;;;;;4967505;28;20320;-66
2022/03/28 10:12:32;;;;;;;27.95;24.65;;;39.30;99.90;;;;;;4976645;28;20753;-64
2022/03/28 10:15:00;;;;;;;30.65;23.98;;;38.40;99.90;;;;;;4942955;28;20255;-64
2022/03/28 10:17:30;;;;;;;29.00;24.50;;;39.50;99.90;;;;;;4940639;28;21690;-64
2022/03/28 10:20:00;;;;;;;28.48;23.85;;;40.40;99.90;;;;;;4962544;28;20283;-65
2022/03/28 10:22:52;;;;;;;26.95;24.05;;;39.70;99.90;;;;;;4973850;28;20229;-65
2022/03/28 10:25:24;;;;;;;26.95;23.98;;;39.60;99.90;;;;;;4962193;28;20236;-65
2022/03/28 10:27:52;;;;;;;27.05;24.05;;;40.60;99.90;;;;;;4979081;28;20209;-65
2022/03/28 10:30:27;;;;;;;29.25;23.83;;;38.80;99.90;;;;;;4933863;28;20263;-66
2022/03/28 10:33:09;;;;;;;26.65;22.38;;;39.20;99.90;;;;;;4970982;28;20209;-65
2022/03/28 10:35:37;;;;;;;26.35;22.20;;;39.80;99.90;;;;;;4960813;28;20551;-66
2022/03/28 10:38:17;;;;;;;28.30;23.77;;;38.30;99.90;;;;;;4950511;28;20661;-65
2022/03/28 10:41:14;;;;;;;27.48;23.00;;;35.70;99.90;;;;;;4961087;28;20337;-65
2022/03/28 10:43:44;;;;;;;27.17;22.30;;;37.40;99.90;;;;;;4978555;28;20692;-65
2022/03/28 10:46:13;;;;;;;26.52;22.70;;;38.40;99.90;;;;;;4981109;28;20233;-65
2022/03/28 10:49:00;;;;;;;25.23;21.90;;;38.20;99.90;;;;;;4964428;28;20206;-65
2022/03/28 10:51:30;;;;;;;25.35;21.83;;;38.80;99.90;;;;;;4969331;28;20260;-65
2022/03/28 10:54:05;;;;;;;25.08;21.20;;;38.30;99.90;;;;;;4961381;28;20308;-64
2022/03/28 10:56:37;;;;;;;26.83;22.45;;;37.80;99.90;;;;;;4980806;28;20220;-64
2022/03/28 10:59:06;;;;;;;27.58;22.30;;;35.60;99.90;;;;;;4954585;28;20225;-64
2022/03/28 11:01:35;;;;;;;29.27;22.70;;;35.80;99.90;;;;;;4944024;28;20213;-64
2022/03/28 11:04:19;;;;;;;27.02;21.73;;;35.40;99.90;;;;;;4963244;28;20867;-63
2022/03/28 11:07:01;;;;;;;27.92;22.25;;;35.00;99.90;;;;;;4974402;28;20228;-65
2022/03/28 11:09:34;;;;;;;26.42;22.20;;;34.70;99.90;;;;;;4992512;28;20209;-64
2022/03/28 11:12:09;;;;;;;25.02;21.58;;;34.60;99.90;;;;;;4979015;28;20271;-64
2022/03/28 11:14:52;;;;;;;25.85;22.00;;;34.70;99.90;;;;;;4975714;28;20197;-65
2022/03/28 11:17:34;;;;;;;27.73;22.60;;;35.00;99.90;;;;;;4981318;28;20297;-65
2022/03/28 11:20:10;;;;;;;27.00;22.65;;;35.10;99.90;;;;;;4963110;28;20292;-64
2022/03/28 11:22:56;;;;;;;24.48;21.77;;;35.00;99.90;;;;;;4969431;28;20247;-64
2022/03/28 11:25:31;;;;;;;27.85;22.15;;;35.30;99.90;;;;;;4967277;28;20216;-64
2022/03/28 11:28:05;;;;;;;27.63;22.77;;;35.30;99.90;;;;;;4979493;28;21595;-66
2022/03/28 11:30:35;;;;;;;23.42;20.10;;;32.10;99.90;;;;;;4947949;28;20196;-64
2022/03/28 11:33:11;;;;;;;26.05;22.42;;;33.60;99.90;;;;;;4969448;28;20213;-64
2022/03/28 11:35:39;;;;;;;25.52;21.30;;;34.20;99.90;;;;;;4951337;28;20318;-65
2022/03/28 11:38:07;;;;;;;26.05;21.83;;;33.80;99.90;;;;;;4951166;28;20244;-64
2022/03/28 11:40:39;;;;;;;24.90;21.10;;;32.80;99.90;;;;;;4971026;28;20233;-64
2022/03/28 11:43:09;;;;;;;26.20;21.27;;;33.50;99.90;;;;;;4957570;28;20695;-66
2022/03/28 11:45:46;;;;;;;28.25;22.90;;;33.90;99.90;;;;;;4962319;28;20193;-64
2022/03/28 11:48:17;;;;;;;26.60;22.13;;;32.70;99.90;;;;;;4973637;28;20249;-64
2022/03/28 11:50:44;;;;;;;27.67;21.42;;;32.60;99.90;;;;;;4972777;28;20224;-64
2022/03/28 11:53:13;;;;;;;24.67;21.63;;;31.60;99.90;;;;;;4975845;28;20222;-64
2022/03/28 11:55:53;;;;;;;23.85;20.45;;;32.40;99.90;;;;;;4963663;28;20598;-64
2022/03/28 11:58:33;;;;;;;26.75;22.88;;;32.20;99.90;;;;;;4979816;28;20205;-64
2022/03/28 12:01:10;;;;;;;25.25;21.80;;;32.20;99.90;;;;;;4955848;28;20220;-68
2022/03/28 12:03:50;;;;;;;28.38;22.65;;;32.40;99.90;;;;;;4960739;28;22367;-64
2022/03/28 12:06:27;;;;;;;25.88;21.42;;;31.70;99.90;;;;;;4970292;28;20538;-65
2022/03/28 12:08:58;;;;;;;24.48;21.77;;;31.80;99.90;;;;;;4958934;28;20209;-64
2022/03/28 12:11:25;;;;;;;26.33;21.80;;;31.90;99.90;;;;;;4954001;28;20226;-65
2022/03/28 12:13:54;;;;;;;26.95;22.20;;;31.60;99.90;;;;;;4959135;28;20217;-64
2022/03/28 12:16:21;;;;;;;27.15;21.27;;;31.70;99.90;;;;;;4976255;28;20245;-64
2022/03/28 12:18:51;;;;;;;27.25;22.10;;;31.90;99.90;;;;;;4962291;28;20621;-64
2022/03/28 12:21:23;;;;;;;28.02;20.88;;;29.80;99.90;;;;;;4978972;28;20594;-64
2022/03/28 12:23:50;;;;;;;29.50;21.25;;;30.00;99.90;;;;;;4974820;28;20301;-64
2022/03/28 12:26:17;;;;;;;26.27;21.42;;;29.70;99.90;;;;;;4959249;28;20217;-64
2022/03/28 12:28:46;;;;;;;23.98;20.45;;;30.00;99.90;;;;;;4963305;28;20229;-68
2022/03/28 12:31:13;;;;;;;26.88;21.85;;;30.00;99.90;;;;;;4978730;28;20215;-64
2022/03/28 12:33:44;;;;;;;29.95;21.42;;;29.30;99.90;;;;;;4958701;28;20213;-63
2022/03/28 12:36:14;;;;;;;26.98;20.75;;;29.30;99.90;;;;;;4958222;28;20201;-64
2022/03/28 12:38:42;;;;;;;26.10;21.45;;;28.60;99.90;;;;;;4941949;28;20497;-63
2022/03/28 12:41:14;;;;;;;32.30;22.23;;;28.50;99.90;;;;;;4957313;28;20206;-64
2022/03/28 12:43:49;;;;;;;29.83;21.48;;;28.10;99.90;;;;;;4977765;28;20301;-63
2022/03/28 12:46:17;;;;;;;30.40;20.63;;;27.60;99.90;;;;;;4965197;28;20197;-63
2022/03/28 12:48:49;;;;;;;30.02;21.45;;;27.50;99.90;;;;;;4958630;28;20205;-62
2022/03/28 12:51:33;;;;;;;29.17;20.33;;;27.50;99.90;;;;;;4963254;28;20264;-64